createdAt,value
2019-03-01T00:00:21.619Z,4.6
2019-03-01T00:01:24.438Z,4.7
2019-03-01T00:02:27.296Z,4.7
2019-03-01T00:03:29.414Z,4.6
2019-03-01T00:04:31.941Z,4.7
2019-03-01T00:05:34.664Z,4.7
2019-03-01T00:06:36.777Z,4.7
2019-03-01T00:07:38.892Z,4.7
2019-03-01T00:08:41.014Z,4.7
2019-03-01T00:09:43.525Z,4.7
2019-03-01T00:10:45.941Z,4.7
2019-03-01T00:11:48.077Z,4.7
2019-03-01T00:12:50.902Z,4.8
2019-03-01T00:13:53.703Z,4.8
2019-03-01T00:14:56.142Z,4.8
2019-03-01T00:15:58.247Z,4.7
2019-03-01T00:17:00.372Z,4.7
2019-03-01T00:18:02.499Z,4.8
2019-03-01T00:19:04.639Z,4.7
2019-03-01T00:20:07.162Z,4.6
2019-03-01T00:21:09.290Z,4.6
2019-03-01T00:22:11.404Z,4.6
2019-03-01T00:23:13.906Z,4.6
2019-03-01T00:24:16.097Z,4.6
2019-03-01T00:25:18.765Z,4.7
2019-03-01T00:26:20.893Z,4.7
2019-03-01T00:27:23.008Z,4.7
2019-03-01T00:28:25.141Z,4.7
2019-03-01T00:29:27.263Z,4.7
2019-03-01T00:30:29.382Z,4.7
2019-03-01T00:31:31.503Z,4.7
2019-03-01T00:32:33.902Z,4.6
2019-03-01T00:33:36.023Z,4.6
2019-03-01T00:34:38.136Z,4.6
2019-03-01T00:35:40.241Z,4.6
2019-03-01T00:36:42.355Z,4.6
2019-03-01T00:37:44.483Z,4.7
2019-03-01T00:38:47.272Z,4.7
2019-03-01T00:39:49.743Z,4.7
2019-03-01T00:40:51.862Z,4.7
2019-03-01T00:41:54.037Z,4.7
2019-03-01T00:42:56.834Z,4.7
2019-03-01T00:43:59.328Z,4.7
2019-03-01T00:45:01.499Z,4.8
2019-03-01T00:46:03.927Z,4.8
2019-03-01T00:47:06.627Z,4.7
2019-03-01T00:48:09.057Z,4.7
2019-03-01T00:49:11.437Z,4.7
2019-03-01T00:50:13.570Z,4.7
2019-03-01T00:51:15.694Z,4.8
2019-03-01T00:52:18.525Z,4.8
2019-03-01T00:53:20.623Z,4.7
2019-03-01T00:54:23.037Z,4.7
2019-03-01T00:55:25.162Z,4.7
2019-03-01T00:56:27.580Z,4.7
2019-03-01T00:57:29.995Z,4.8
2019-03-01T00:58:32.492Z,4.7
2019-03-01T00:59:34.609Z,4.8
2019-03-01T01:00:36.732Z,4.8
2019-03-01T01:01:38.864Z,4.7
2019-03-01T01:02:41.020Z,4.6
2019-03-01T01:03:43.442Z,4.6
2019-03-01T01:04:45.562Z,4.6
2019-03-01T01:05:47.665Z,4.6
2019-03-01T01:06:50.090Z,4.7
2019-03-01T01:07:52.886Z,4.7
2019-03-01T01:08:54.994Z,4.7
2019-03-01T01:09:57.110Z,4.7
2019-03-01T01:10:59.234Z,4.7
2019-03-01T01:12:01.636Z,4.7
2019-03-01T01:13:04.115Z,4.7
2019-03-01T01:14:06.232Z,4.8
2019-03-01T01:15:08.393Z,4.7
2019-03-01T01:16:10.517Z,4.7
2019-03-01T01:17:12.933Z,4.8
2019-03-01T01:18:15.053Z,4.7
2019-03-01T01:19:17.212Z,4.8
2019-03-01T01:20:19.332Z,4.7
2019-03-01T01:21:21.453Z,4.7
2019-03-01T01:22:23.582Z,4.7
2019-03-01T01:23:25.705Z,4.7
2019-03-01T01:24:27.817Z,4.7
2019-03-01T01:25:30.248Z,4.7
2019-03-01T01:26:32.634Z,4.6
2019-03-01T01:27:35.079Z,4.6
2019-03-01T01:28:37.192Z,4.6
2019-03-01T01:29:39.315Z,4.6
2019-03-01T01:30:41.438Z,4.6
2019-03-01T01:31:43.585Z,4.6
2019-03-01T01:32:45.715Z,4.6
2019-03-01T01:33:47.828Z,4.6
2019-03-01T01:34:50.356Z,4.7
2019-03-01T01:35:52.467Z,4.7
2019-03-01T01:36:54.591Z,4.7
2019-03-01T01:37:56.707Z,4.7
2019-03-01T01:38:58.804Z,4.7
2019-03-01T01:40:01.306Z,4.7
2019-03-01T01:41:03.729Z,4.7
2019-03-01T01:42:05.828Z,4.7
2019-03-01T01:43:08.227Z,4.7
2019-03-01T01:44:10.355Z,4.7
2019-03-01T01:45:13.158Z,4.7
2019-03-01T01:46:15.293Z,4.6
2019-03-01T01:47:17.419Z,4.6
2019-03-01T01:48:19.882Z,4.6
2019-03-01T01:49:22.006Z,4.6
2019-03-01T01:50:24.561Z,4.4
2019-03-01T01:51:27.000Z,4.4
2019-03-01T01:52:29.429Z,4.4
2019-03-01T01:53:31.834Z,4.5
2019-03-01T01:54:34.925Z,4.5
2019-03-01T01:55:37.454Z,4.5
2019-03-01T01:56:40.263Z,4.5
2019-03-01T01:57:42.382Z,4.6
2019-03-01T01:58:44.492Z,4.5
2019-03-01T01:59:46.955Z,4.5
2019-03-01T02:00:49.396Z,4.5
2019-03-01T02:01:51.521Z,4.5
2019-03-01T02:02:53.648Z,4.5
2019-03-01T02:03:55.758Z,4.5
2019-03-01T02:04:58.277Z,4.5
2019-03-01T02:06:00.395Z,4.6
2019-03-01T02:07:03.187Z,4.5
2019-03-01T02:08:05.989Z,4.6
2019-03-01T02:09:08.509Z,4.5
2019-03-01T02:10:10.629Z,4.6
2019-03-01T02:11:13.040Z,4.6
2019-03-01T02:12:15.176Z,4.6
2019-03-01T02:13:17.279Z,4.6
2019-03-01T02:14:19.389Z,4.6
2019-03-01T02:15:21.521Z,4.6
2019-03-01T02:16:23.645Z,4.5
2019-03-01T02:17:26.032Z,4.5
2019-03-01T02:18:28.155Z,4.5
2019-03-01T02:19:30.251Z,4.5
2019-03-01T02:20:32.373Z,4.6
2019-03-01T02:21:34.495Z,4.5
2019-03-01T02:22:37.007Z,4.6
2019-03-01T02:23:41.248Z,4.5
2019-03-01T02:24:43.456Z,4.5
2019-03-01T02:25:45.582Z,4.5
2019-03-01T02:26:47.692Z,4.4
2019-03-01T02:27:49.817Z,4.4
2019-03-01T02:28:51.914Z,4.4
2019-03-01T02:29:54.348Z,4.4
2019-03-01T02:30:56.763Z,4.4
2019-03-01T02:31:59.652Z,4.5
2019-03-01T02:33:03.052Z,4.5
2019-03-01T02:34:05.207Z,4.5
2019-03-01T02:35:07.685Z,4.5
2019-03-01T02:36:11.532Z,4.5
2019-03-01T02:37:13.688Z,4.5
2019-03-01T02:38:15.849Z,4.5
2019-03-01T02:39:18.650Z,4.5
2019-03-01T02:40:21.276Z,4.4
2019-03-01T02:41:23.696Z,4.4
2019-03-01T02:42:25.935Z,4.4
2019-03-01T02:43:28.708Z,4.4
2019-03-01T02:44:30.921Z,4.4
2019-03-01T02:45:33.348Z,4.4
2019-03-01T02:46:35.504Z,4.4
2019-03-01T02:47:37.638Z,4.4
2019-03-01T02:48:40.079Z,4.4
2019-03-01T02:49:42.676Z,4.4
2019-03-01T02:50:44.807Z,4.4
2019-03-01T02:51:47.362Z,4.3
2019-03-01T02:52:50.484Z,4.4
2019-03-01T02:53:52.629Z,4.4
2019-03-01T02:54:54.771Z,4.4
2019-03-01T02:55:56.891Z,4.4
2019-03-01T02:56:59.656Z,4.3
2019-03-01T02:58:02.433Z,4.3
2019-03-01T02:59:04.567Z,4.4
2019-03-01T03:00:06.701Z,4.4
2019-03-01T03:01:09.129Z,4.4
2019-03-01T03:02:11.240Z,4.3
2019-03-01T03:03:13.397Z,4.3
2019-03-01T03:04:15.872Z,4.4
2019-03-01T03:05:18.308Z,4.4
2019-03-01T03:06:20.446Z,4.4
2019-03-01T03:07:23.307Z,4.4
2019-03-01T03:08:26.071Z,4.4
2019-03-01T03:09:28.772Z,4.4
2019-03-01T03:10:31.916Z,4.4
2019-03-01T03:11:34.324Z,4.4
2019-03-01T03:12:36.748Z,4.4
2019-03-01T03:13:39.486Z,4.3
2019-03-01T03:14:41.925Z,4.4
2019-03-01T03:15:44.478Z,4.3
2019-03-01T03:16:47.075Z,4.3
2019-03-01T03:17:49.867Z,4.3
2019-03-01T03:18:52.041Z,4.4
2019-03-01T03:19:54.561Z,4.4
2019-03-01T03:20:57.756Z,4.4
2019-03-01T03:22:00.875Z,4.4
2019-03-01T03:23:03.450Z,4.4
2019-03-01T03:24:06.268Z,4.4
2019-03-01T03:25:08.730Z,4.5
2019-03-01T03:26:11.161Z,4.5
2019-03-01T03:27:13.579Z,4.4
2019-03-01T03:28:16.667Z,4.4
2019-03-01T03:29:19.070Z,4.4
2019-03-01T03:30:21.705Z,4.4
2019-03-01T03:31:24.286Z,4.4
2019-03-01T03:32:27.227Z,4.4
2019-03-01T03:33:30.027Z,4.4
2019-03-01T03:34:32.671Z,4.4
2019-03-01T03:35:35.169Z,4.4
2019-03-01T03:36:37.624Z,4.4
2019-03-01T03:37:40.344Z,4.4
2019-03-01T03:38:42.474Z,4.4
2019-03-01T03:39:45.142Z,4.4
2019-03-01T03:40:47.750Z,4.4
2019-03-01T03:41:50.201Z,4.4
2019-03-01T03:42:52.312Z,4.4
2019-03-01T03:43:55.135Z,4.4
2019-03-01T03:44:57.264Z,4.4
2019-03-01T03:45:59.700Z,4.4
2019-03-01T03:47:01.834Z,4.4
2019-03-01T03:48:04.685Z,4.4
2019-03-01T03:49:07.102Z,4.4
2019-03-01T03:50:09.587Z,4.4
2019-03-01T03:51:12.167Z,4.4
2019-03-01T03:52:14.668Z,4.4
2019-03-01T03:53:17.094Z,4.4
2019-03-01T03:54:19.508Z,4.4
2019-03-01T03:55:22.626Z,4.4
2019-03-01T03:56:25.136Z,4.5
2019-03-01T03:57:27.938Z,4.4
2019-03-01T03:58:30.364Z,4.4
2019-03-01T03:59:33.191Z,4.4
2019-03-01T04:00:35.330Z,4.4
2019-03-01T04:01:37.767Z,4.4
2019-03-01T04:02:40.304Z,4.4
2019-03-01T04:03:42.825Z,4.4
2019-03-01T04:04:44.970Z,4.4
2019-03-01T04:05:47.377Z,4.3
2019-03-01T04:06:50.549Z,4.3
2019-03-01T04:07:52.700Z,4.4
2019-03-01T04:08:55.490Z,4.4
2019-03-01T04:09:58.369Z,4.5
2019-03-01T04:11:01.169Z,4.4
2019-03-01T04:12:04.583Z,4.5
2019-03-01T04:13:06.702Z,4.5
2019-03-01T04:14:08.876Z,4.5
2019-03-01T04:15:11.607Z,4.4
2019-03-01T04:16:14.014Z,4.4
2019-03-01T04:17:16.854Z,4.4
2019-03-01T04:18:20.095Z,4.4
2019-03-01T04:19:22.537Z,4.4
2019-03-01T04:20:25.099Z,4.4
2019-03-01T04:21:27.547Z,4.4
2019-03-01T04:22:29.958Z,4.4
2019-03-01T04:23:32.500Z,4.4
2019-03-01T04:24:34.908Z,4.4
2019-03-01T04:25:37.309Z,4.4
2019-03-01T04:26:39.749Z,4.4
2019-03-01T04:27:42.311Z,4.4
2019-03-01T04:28:44.728Z,4.4
2019-03-01T04:29:46.902Z,4.4
2019-03-01T04:30:49.332Z,4.4
2019-03-01T04:31:52.134Z,4.4
2019-03-01T04:32:54.943Z,4.4
2019-03-01T04:33:57.071Z,4.4
2019-03-01T04:34:59.805Z,4.5
2019-03-01T04:36:01.954Z,4.5
2019-03-01T04:37:04.109Z,4.5
2019-03-01T04:38:06.605Z,4.5
2019-03-01T04:39:08.730Z,4.5
2019-03-01T04:40:10.849Z,4.5
2019-03-01T04:41:12.954Z,4.5
2019-03-01T04:42:15.089Z,4.4
2019-03-01T04:43:17.202Z,4.4
2019-03-01T04:44:19.329Z,4.5
2019-03-01T04:45:21.437Z,4.4
2019-03-01T04:46:23.959Z,4.4
2019-03-01T04:47:26.353Z,4.4
2019-03-01T04:48:29.188Z,4.5
2019-03-01T04:49:31.405Z,4.4
2019-03-01T04:50:33.820Z,4.4
2019-03-01T04:51:41.660Z,4.4
2019-03-01T04:52:43.779Z,4.4
2019-03-01T04:53:45.938Z,4.5
2019-03-01T04:54:48.074Z,4.5
2019-03-01T04:55:50.196Z,4.5
2019-03-01T04:56:52.318Z,4.5
2019-03-01T04:57:54.835Z,4.5
2019-03-01T04:58:56.960Z,4.6
2019-03-01T04:59:59.456Z,4.5
2019-03-01T05:01:01.574Z,4.5
2019-03-01T05:02:03.709Z,4.5
2019-03-01T05:03:06.114Z,4.5
2019-03-01T05:04:08.223Z,4.4
2019-03-01T05:05:10.676Z,4.4
2019-03-01T05:06:13.067Z,4.4
2019-03-01T05:07:15.190Z,4.4
2019-03-01T05:08:17.613Z,4.4
2019-03-01T05:09:20.050Z,4.4
2019-03-01T05:10:22.883Z,4.5
2019-03-01T05:11:25.009Z,4.5
2019-03-01T05:12:27.130Z,4.4
2019-03-01T05:13:29.248Z,4.4
2019-03-01T05:14:31.350Z,4.4
2019-03-01T05:15:33.802Z,4.4
2019-03-01T05:16:35.913Z,4.4
2019-03-01T05:17:38.323Z,4.3
2019-03-01T05:18:40.436Z,4.3
2019-03-01T05:19:42.568Z,4.4
2019-03-01T05:20:44.999Z,4.3
2019-03-01T05:21:47.128Z,4.4
2019-03-01T05:22:49.573Z,4.4
2019-03-01T05:23:51.678Z,4.3
2019-03-01T05:24:54.085Z,4.4
2019-03-01T05:25:56.206Z,4.4
2019-03-01T05:26:58.329Z,4.3
2019-03-01T05:28:00.440Z,4.3
2019-03-01T05:29:03.631Z,4.3
2019-03-01T05:30:06.030Z,4.3
2019-03-01T05:31:08.141Z,4.3
2019-03-01T05:32:10.273Z,4.3
2019-03-01T05:33:12.374Z,4.3
2019-03-01T05:34:14.490Z,4.3
2019-03-01T05:35:17.313Z,4.3
2019-03-01T05:36:19.431Z,4.3
2019-03-01T05:37:21.820Z,4.3
2019-03-01T05:38:23.937Z,4.3
2019-03-01T05:39:26.151Z,4.3
2019-03-01T05:40:28.575Z,4.2
2019-03-01T05:41:31.136Z,4.3
2019-03-01T05:42:33.247Z,4.2
2019-03-01T05:43:35.659Z,4.3
2019-03-01T05:44:37.798Z,4.3
2019-03-01T05:45:39.915Z,4.3
2019-03-01T05:46:42.033Z,4.3
2019-03-01T05:47:44.563Z,4.3
2019-03-01T05:48:46.694Z,4.3
2019-03-01T05:49:48.806Z,4.3
2019-03-01T05:50:51.616Z,4.3
2019-03-01T05:51:53.722Z,4.4
2019-03-01T05:52:55.857Z,4.4
2019-03-01T05:53:57.963Z,4.3
2019-03-01T05:55:00.097Z,4.3
2019-03-01T05:56:02.356Z,4.3
2019-03-01T05:57:04.453Z,4.3
2019-03-01T05:58:17.235Z,4.3
2019-03-01T05:59:19.358Z,4.3
2019-03-01T06:00:21.479Z,4.3
2019-03-01T06:01:23.651Z,4.3
2019-03-01T06:02:25.780Z,4.2
2019-03-01T06:03:28.277Z,4.3
2019-03-01T06:04:30.387Z,4.2
2019-03-01T06:05:32.525Z,4.3
2019-03-01T06:06:34.943Z,4.3
2019-03-01T06:07:37.750Z,4.2
2019-03-01T06:08:39.878Z,4.2
2019-03-01T06:09:42.008Z,4.2
2019-03-01T06:10:44.421Z,4.2
2019-03-01T06:11:46.555Z,4.3
2019-03-01T06:12:48.654Z,4.3
2019-03-01T06:13:51.066Z,4.3
2019-03-01T06:14:53.188Z,4.3
2019-03-01T06:15:55.310Z,4.3
2019-03-01T06:16:57.726Z,4.3
2019-03-01T06:18:00.141Z,4.3
2019-03-01T06:19:02.642Z,4.3
2019-03-01T06:20:05.430Z,4.3
2019-03-01T06:21:07.953Z,4.3
2019-03-01T06:22:10.637Z,4.3
2019-03-01T06:23:12.752Z,4.3
2019-03-01T06:24:15.142Z,4.3
2019-03-01T06:25:17.954Z,4.3
2019-03-01T06:26:20.421Z,4.3
2019-03-01T06:27:22.531Z,4.3
2019-03-01T06:28:24.928Z,4.3
2019-03-01T06:29:27.061Z,4.3
2019-03-01T06:30:29.165Z,4.3
2019-03-01T06:31:31.291Z,4.3
2019-03-01T06:32:33.419Z,4.4
2019-03-01T06:33:35.843Z,4.4
2019-03-01T06:34:37.942Z,4.3
2019-03-01T06:35:40.087Z,4.4
2019-03-01T06:36:42.199Z,4.3
2019-03-01T06:37:44.309Z,4.4
2019-03-01T06:38:46.827Z,4.4
2019-03-01T06:39:48.934Z,4.3
2019-03-01T06:40:51.146Z,4.3
2019-03-01T06:41:54.173Z,4.3
2019-03-01T06:42:56.292Z,4.4
2019-03-01T06:43:58.405Z,4.4
2019-03-01T06:45:01.322Z,4.4
2019-03-01T06:46:04.153Z,4.4
2019-03-01T06:47:06.279Z,4.4
2019-03-01T06:48:08.693Z,4.4
2019-03-01T06:49:10.817Z,4.4
2019-03-01T06:50:14.236Z,4.4
2019-03-01T06:51:16.378Z,4.4
2019-03-01T06:52:18.488Z,4.5
2019-03-01T06:53:20.603Z,4.5
2019-03-01T06:54:22.728Z,4.4
2019-03-01T06:55:25.220Z,4.4
2019-03-01T06:56:27.345Z,4.4
2019-03-01T06:57:29.511Z,4.4
2019-03-01T06:58:31.637Z,4.4
2019-03-01T06:59:33.738Z,4.4
2019-03-01T07:00:36.164Z,4.4
2019-03-01T07:01:38.578Z,4.4
2019-03-01T07:02:40.978Z,4.4
2019-03-01T07:03:43.116Z,4.5
2019-03-01T07:04:45.503Z,4.4
2019-03-01T07:05:47.624Z,4.4
2019-03-01T07:06:50.035Z,4.4
2019-03-01T07:07:52.176Z,4.4
2019-03-01T07:08:54.692Z,4.3
2019-03-01T07:09:56.808Z,4.4
2019-03-01T07:10:58.934Z,4.3
2019-03-01T07:12:01.040Z,4.4
2019-03-01T07:13:03.774Z,4.4
2019-03-01T07:14:05.892Z,4.4
2019-03-01T07:15:09.887Z,4.4
2019-03-01T07:16:12.402Z,4.4
2019-03-01T07:17:14.826Z,4.4
2019-03-01T07:18:16.939Z,4.4
2019-03-01T07:19:19.093Z,4.4
2019-03-01T07:20:21.904Z,4.5
2019-03-01T07:21:24.021Z,4.4
2019-03-01T07:22:26.459Z,4.4
2019-03-01T07:23:38.400Z,4.4
2019-03-01T07:24:40.511Z,4.5
2019-03-01T07:25:43.672Z,4.5
2019-03-01T07:26:45.804Z,4.5
2019-03-01T07:27:48.211Z,4.5
2019-03-01T07:28:50.348Z,4.5
2019-03-01T07:29:52.478Z,4.5
2019-03-01T07:30:54.603Z,4.5
2019-03-01T07:31:56.710Z,4.5
2019-03-01T07:32:59.133Z,4.4
2019-03-01T07:34:01.822Z,4.5
2019-03-01T07:35:04.355Z,4.5
2019-03-01T07:36:06.483Z,4.4
2019-03-01T07:37:08.586Z,4.4
2019-03-01T07:38:10.736Z,4.4
2019-03-01T07:39:13.151Z,4.4
2019-03-01T07:40:15.570Z,4.4
2019-03-01T07:41:17.709Z,4.4
2019-03-01T07:42:19.838Z,4.4
2019-03-01T07:43:21.955Z,4.4
2019-03-01T07:44:24.086Z,4.4
2019-03-01T07:45:26.489Z,4.5
2019-03-01T07:46:28.900Z,4.4
2019-03-01T07:47:31.031Z,4.4
2019-03-01T07:48:33.711Z,4.4
2019-03-01T07:49:35.831Z,4.5
2019-03-01T07:50:37.963Z,4.4
2019-03-01T07:51:40.069Z,4.3
2019-03-01T07:52:42.232Z,4.3
2019-03-01T07:53:44.636Z,4.3
2019-03-01T07:54:54.030Z,4.3
2019-03-01T07:55:56.176Z,4.3
2019-03-01T07:56:58.640Z,4.3
2019-03-01T07:58:01.424Z,4.4
2019-03-01T07:59:03.557Z,4.3
2019-03-01T08:00:05.969Z,4.3
2019-03-01T08:01:08.461Z,4.3
2019-03-01T08:02:10.895Z,4.4
2019-03-01T08:03:16.861Z,4.4
2019-03-01T08:04:18.979Z,4.4
2019-03-01T08:05:21.087Z,4.3
2019-03-01T08:06:23.223Z,4.3
2019-03-01T08:07:26.065Z,4.4
2019-03-01T08:08:28.510Z,4.4
2019-03-01T08:09:30.634Z,4.2
2019-03-01T08:10:32.739Z,4.3
2019-03-01T08:11:35.170Z,4.4
2019-03-01T08:12:44.391Z,4.4
2019-03-01T08:13:52.920Z,4.4
2019-03-01T08:14:56.209Z,4.4
2019-03-01T08:15:58.340Z,4.4
2019-03-01T08:17:00.453Z,4.4
2019-03-01T08:18:10.051Z,4.4
2019-03-01T08:19:22.245Z,4.3
2019-03-01T08:20:25.929Z,4.3
2019-03-01T08:21:28.344Z,4.2
2019-03-01T08:22:30.483Z,4.2
2019-03-01T08:23:36.922Z,4.1
2019-03-01T08:24:39.050Z,4.1
2019-03-01T08:25:41.206Z,4.1
2019-03-01T08:26:43.334Z,4.1
2019-03-01T08:27:51.409Z,4.1
2019-03-01T08:29:00.983Z,4.1
2019-03-01T08:30:06.818Z,4.1
2019-03-01T08:31:13.390Z,4.1
2019-03-01T08:32:15.541Z,4.1
2019-03-01T08:33:17.943Z,4
2019-03-01T08:34:20.075Z,4.1
2019-03-01T08:35:25.239Z,4
2019-03-01T08:36:30.981Z,4.1
2019-03-01T08:37:33.389Z,4
2019-03-01T08:38:35.530Z,4
2019-03-01T08:39:41.678Z,4.1
2019-03-01T08:40:50.833Z,4.1
2019-03-01T08:41:53.323Z,4.2
2019-03-01T08:42:56.398Z,4.2
2019-03-01T08:43:58.511Z,4.1
2019-03-01T08:45:01.127Z,4.1
2019-03-01T08:46:11.223Z,4.1
2019-03-01T08:47:13.344Z,4.2
2019-03-01T08:48:15.741Z,4.2
2019-03-01T08:49:17.888Z,4.2
2019-03-01T08:50:20.001Z,4.3
2019-03-01T08:51:28.332Z,4.3
2019-03-01T08:52:30.455Z,4.3
2019-03-01T08:53:32.571Z,4.3
2019-03-01T08:54:34.693Z,4.3
2019-03-01T08:55:40.769Z,4.4
2019-03-01T08:56:50.435Z,4.4
2019-03-01T08:57:53.506Z,4.4
2019-03-01T08:58:55.630Z,4.5
2019-03-01T08:59:57.743Z,4.6
2019-03-01T09:01:10.652Z,4.7
2019-03-01T09:02:13.126Z,4.8
2019-03-01T09:03:23.894Z,4.7
2019-03-01T09:04:26.011Z,4.7
2019-03-01T09:05:28.122Z,4.7
2019-03-01T09:06:30.924Z,4.8
2019-03-01T09:07:33.038Z,4.7
2019-03-01T09:08:35.441Z,4.7
2019-03-01T09:09:37.574Z,4.7
2019-03-01T09:10:39.991Z,4.7
2019-03-01T09:11:46.225Z,4.6
2019-03-01T09:12:48.348Z,4.7
2019-03-01T09:13:50.498Z,4.7
2019-03-01T09:14:52.893Z,4.7
2019-03-01T09:15:55.024Z,4.6
2019-03-01T09:16:57.451Z,4.6
2019-03-01T09:17:59.573Z,4.7
2019-03-01T09:19:02.105Z,4.8
2019-03-01T09:20:04.220Z,4.6
2019-03-01T09:21:14.747Z,4.7
2019-03-01T09:22:16.932Z,4.7
2019-03-01T09:23:28.311Z,4.7
2019-03-01T09:24:31.399Z,4.7
2019-03-01T09:25:33.529Z,4.7
2019-03-01T09:26:36.825Z,4.6
2019-03-01T09:27:38.987Z,4.6
2019-03-01T09:28:41.427Z,4.7
2019-03-01T09:29:43.833Z,4.7
2019-03-01T09:30:45.937Z,4.7
2019-03-01T09:31:48.049Z,4.7
2019-03-01T09:32:50.189Z,4.8
2019-03-01T09:33:58.256Z,4.7
2019-03-01T09:35:08.148Z,4.8
2019-03-01T09:36:10.926Z,4.7
2019-03-01T09:37:16.453Z,4.8
2019-03-01T09:38:18.851Z,4.8
2019-03-01T09:39:21.001Z,4.8
2019-03-01T09:40:30.806Z,4.8
2019-03-01T09:41:32.928Z,4.8
2019-03-01T09:42:35.455Z,4.8
2019-03-01T09:43:37.578Z,4.8
2019-03-01T09:44:40.837Z,4.8
2019-03-01T09:45:49.767Z,4.6
2019-03-01T09:46:51.884Z,4.7
2019-03-01T09:47:54.280Z,4.7
2019-03-01T09:48:56.419Z,4.8
2019-03-01T09:50:02.159Z,4.8
2019-03-01T09:51:11.586Z,4.8
2019-03-01T09:52:13.714Z,4.7
2019-03-01T09:53:15.814Z,4.6
2019-03-01T09:54:18.235Z,4.8
2019-03-01T09:55:20.347Z,4.8
2019-03-01T09:56:24.890Z,4.9
2019-03-01T09:57:26.988Z,4.8
2019-03-01T09:58:29.138Z,4.7
2019-03-01T09:59:31.542Z,4.9
2019-03-01T10:00:33.681Z,4.9
2019-03-01T10:01:35.813Z,4.9
2019-03-01T10:02:37.981Z,4.9
2019-03-01T10:03:40.103Z,5
2019-03-01T10:04:42.245Z,4.9
2019-03-01T10:05:44.399Z,4.9
2019-03-01T10:06:46.503Z,5
2019-03-01T10:07:48.642Z,5
2019-03-01T10:08:51.139Z,5.1
2019-03-01T10:09:53.254Z,5.1
2019-03-01T10:10:55.792Z,5
2019-03-01T10:11:57.916Z,5.1
2019-03-01T10:13:00.035Z,5
2019-03-01T10:14:02.190Z,5.1
2019-03-01T10:15:04.314Z,4.9
2019-03-01T10:16:06.435Z,5
2019-03-01T10:17:08.952Z,4.9
2019-03-01T10:18:11.100Z,5
2019-03-01T10:19:14.184Z,5.1
2019-03-01T10:20:16.585Z,5
2019-03-01T10:21:18.699Z,5.1
2019-03-01T10:22:20.836Z,5
2019-03-01T10:23:23.333Z,5
2019-03-01T10:24:25.462Z,5.1
2019-03-01T10:25:27.593Z,5
2019-03-01T10:26:29.696Z,5
2019-03-01T10:27:31.816Z,5.1
2019-03-01T10:28:33.936Z,5.1
2019-03-01T10:29:36.057Z,4.9
2019-03-01T10:30:38.158Z,4.9
2019-03-01T10:31:40.594Z,4.9
2019-03-01T10:32:42.705Z,4.8
2019-03-01T10:33:44.816Z,4.8
2019-03-01T10:34:46.953Z,4.9
2019-03-01T10:35:49.450Z,4.9
2019-03-01T10:36:51.575Z,4.8
2019-03-01T10:37:55.488Z,4.8
2019-03-01T10:38:57.894Z,4.8
2019-03-01T10:40:00.003Z,4.9
2019-03-01T10:41:02.232Z,5
2019-03-01T10:42:04.337Z,5
2019-03-01T10:43:06.451Z,5
2019-03-01T10:44:08.575Z,5
2019-03-01T10:45:10.688Z,5
2019-03-01T10:46:12.799Z,5
2019-03-01T10:47:14.948Z,5
2019-03-01T10:48:17.070Z,5
2019-03-01T10:49:19.181Z,5
2019-03-01T10:50:21.318Z,5
2019-03-01T10:51:23.998Z,5
2019-03-01T10:52:26.132Z,5
2019-03-01T10:53:28.353Z,5.1
2019-03-01T10:54:30.484Z,5
2019-03-01T10:55:32.599Z,4.9
2019-03-01T10:56:34.992Z,4.9
2019-03-01T10:57:37.143Z,4.7
2019-03-01T10:58:39.271Z,4.7
2019-03-01T10:59:41.435Z,4.7
2019-03-01T11:00:43.562Z,4.8
2019-03-01T11:01:45.681Z,4.8
2019-03-01T11:02:48.193Z,4.9
2019-03-01T11:03:50.289Z,4.8
2019-03-01T11:04:52.437Z,4.8
2019-03-01T11:05:54.555Z,4.7
2019-03-01T11:06:56.712Z,4.7
2019-03-01T11:07:58.853Z,4.8
2019-03-01T11:09:00.981Z,4.7
2019-03-01T11:10:03.102Z,5.1
2019-03-01T11:11:05.509Z,5
2019-03-01T11:12:08.109Z,5
2019-03-01T11:13:10.229Z,5
2019-03-01T11:14:12.430Z,4.8
2019-03-01T11:15:14.541Z,5
2019-03-01T11:16:16.734Z,5
2019-03-01T11:17:18.899Z,5
2019-03-01T11:18:21.012Z,5
2019-03-01T11:19:23.133Z,4.8
2019-03-01T11:20:25.274Z,4.9
2019-03-01T11:21:27.418Z,5
2019-03-01T11:22:29.546Z,5
2019-03-01T11:23:31.710Z,5
2019-03-01T11:24:33.810Z,5.1
2019-03-01T11:25:35.929Z,5.1
2019-03-01T11:26:38.075Z,5
2019-03-01T11:27:40.205Z,4.9
2019-03-01T11:28:42.366Z,5
2019-03-01T11:29:44.508Z,4.9
2019-03-01T11:30:46.943Z,4.9
2019-03-01T11:31:49.757Z,5
2019-03-01T11:32:52.170Z,4.8
2019-03-01T11:33:54.298Z,5
2019-03-01T11:34:56.451Z,5
2019-03-01T11:35:58.573Z,5.3
2019-03-01T11:37:01.078Z,5.2
2019-03-01T11:38:03.254Z,5.2
2019-03-01T11:39:05.367Z,5.4
2019-03-01T11:40:07.543Z,5.5
2019-03-01T11:41:09.688Z,5.6
2019-03-01T11:42:11.834Z,5.1
2019-03-01T11:43:13.962Z,5.2
2019-03-01T11:44:16.137Z,5
2019-03-01T11:45:18.259Z,5.1
2019-03-01T11:46:20.374Z,5
2019-03-01T11:47:22.543Z,5.1
2019-03-01T11:48:25.048Z,4.9
2019-03-01T11:49:27.598Z,5
2019-03-01T11:50:29.751Z,5
2019-03-01T11:51:31.948Z,5
2019-03-01T11:52:34.340Z,5
2019-03-01T11:53:36.619Z,5
2019-03-01T11:54:39.137Z,5.1
2019-03-01T11:55:41.717Z,5
2019-03-01T11:56:43.856Z,4.9
2019-03-01T11:57:45.975Z,5.1
2019-03-01T11:58:48.130Z,5
2019-03-01T11:59:50.543Z,5.1
2019-03-01T12:00:53.840Z,5.1
2019-03-01T12:01:55.954Z,5
2019-03-01T12:02:58.091Z,5.1
2019-03-01T12:04:00.227Z,5.1
2019-03-01T12:05:02.632Z,4.9
2019-03-01T12:06:05.191Z,5
2019-03-01T12:07:07.979Z,4.9
2019-03-01T12:08:10.382Z,4.9
2019-03-01T12:09:12.496Z,4.9
2019-03-01T12:10:14.634Z,4.9
2019-03-01T12:11:16.746Z,4.9
2019-03-01T12:12:18.874Z,4.8
2019-03-01T12:13:21.268Z,4.8
2019-03-01T12:14:23.556Z,4.8
2019-03-01T12:15:25.691Z,4.9
2019-03-01T12:16:27.867Z,4.8
2019-03-01T12:17:29.968Z,4.9
2019-03-01T12:18:32.081Z,4.8
2019-03-01T12:19:34.208Z,4.9
2019-03-01T12:20:36.604Z,5
2019-03-01T12:21:38.728Z,5
2019-03-01T12:22:40.868Z,4.9
2019-03-01T12:23:42.979Z,5.1
2019-03-01T12:24:45.107Z,5.2
2019-03-01T12:25:47.245Z,5.1
2019-03-01T12:26:49.346Z,5
2019-03-01T12:27:51.518Z,4.9
2019-03-01T12:28:53.682Z,5
2019-03-01T12:29:55.793Z,5.1
2019-03-01T12:30:58.220Z,4.8
2019-03-01T12:32:00.999Z,5.1
2019-03-01T12:33:03.111Z,5.1
2019-03-01T12:34:05.224Z,5.1
2019-03-01T12:35:07.369Z,5.1
2019-03-01T12:36:09.487Z,5.2
2019-03-01T12:37:11.607Z,5.2
2019-03-01T12:38:13.740Z,5.2
2019-03-01T12:39:15.842Z,5.1
2019-03-01T12:40:17.974Z,5.1
2019-03-01T12:41:20.105Z,5
2019-03-01T12:42:22.228Z,5
2019-03-01T12:43:24.342Z,5.1
2019-03-01T12:44:26.474Z,5.1
2019-03-01T12:45:28.583Z,5.2
2019-03-01T12:46:30.714Z,5.2
2019-03-01T12:47:32.847Z,5.2
2019-03-01T12:48:34.969Z,5.3
2019-03-01T12:49:37.090Z,5.3
2019-03-01T12:50:39.203Z,5.4
2019-03-01T12:51:41.324Z,5.3
2019-03-01T12:52:43.786Z,5.2
2019-03-01T12:53:46.504Z,5.1
2019-03-01T12:54:49.325Z,5.1
2019-03-01T12:55:51.720Z,5.1
2019-03-01T12:56:53.824Z,5.2
2019-03-01T12:57:55.950Z,5.1
2019-03-01T12:58:58.086Z,5.2
2019-03-01T13:00:00.192Z,5.1
2019-03-01T13:01:02.479Z,5.2
2019-03-01T13:02:04.601Z,5.2
2019-03-01T13:03:11.458Z,5.2
2019-03-01T13:04:20.149Z,5.2
2019-03-01T13:05:30.209Z,5.2
2019-03-01T13:06:39.743Z,5.3
2019-03-01T13:07:43.254Z,5.3
2019-03-01T13:08:53.105Z,5.3
2019-03-01T13:09:55.205Z,5.2
2019-03-01T13:10:57.325Z,5.2
2019-03-01T13:11:59.514Z,5.3
2019-03-01T13:13:09.620Z,5.2
2019-03-01T13:14:11.751Z,5.2
2019-03-01T13:15:15.494Z,5.3
2019-03-01T13:16:17.615Z,5.3
2019-03-01T13:17:19.714Z,5.2
2019-03-01T13:18:21.839Z,5.3
2019-03-01T13:19:27.734Z,5.3
2019-03-01T13:20:38.237Z,5.3
2019-03-01T13:21:40.379Z,5.4
2019-03-01T13:22:42.501Z,5.4
2019-03-01T13:23:46.927Z,5.3
2019-03-01T13:24:54.887Z,5.3
2019-03-01T13:25:57.011Z,5.1
2019-03-01T13:26:59.127Z,5.2
2019-03-01T13:28:01.243Z,5.2
2019-03-01T13:29:03.685Z,5.3
2019-03-01T13:30:06.078Z,5.2
2019-03-01T13:31:13.040Z,5.3
2019-03-01T13:32:15.166Z,5.3
2019-03-01T13:33:17.292Z,5.2
2019-03-01T13:34:19.391Z,5.2
2019-03-01T13:35:28.278Z,5.3
2019-03-01T13:36:30.404Z,5.2
2019-03-01T13:37:32.511Z,5.2
2019-03-01T13:38:36.371Z,5.3
2019-03-01T13:39:38.773Z,5.4
2019-03-01T13:40:40.895Z,5.4
2019-03-01T13:41:43.001Z,5.4
2019-03-01T13:42:52.769Z,5.3
2019-03-01T13:43:54.882Z,5.3
2019-03-01T13:44:56.996Z,5.3
2019-03-01T13:46:01.164Z,5.3
2019-03-01T13:47:10.189Z,5.3
2019-03-01T13:48:12.315Z,5.2
2019-03-01T13:49:14.816Z,5.3
2019-03-01T13:50:16.943Z,5.2
2019-03-01T13:51:19.384Z,5.3
2019-03-01T13:52:21.815Z,5.4
2019-03-01T13:53:23.931Z,5.4
2019-03-01T13:54:26.063Z,5.4
2019-03-01T13:55:28.842Z,5.3
2019-03-01T13:56:37.472Z,5.3
2019-03-01T13:57:39.905Z,5.4
2019-03-01T13:58:42.044Z,5.3
2019-03-01T13:59:45.175Z,5.4
2019-03-01T14:00:50.520Z,5.4
2019-03-01T14:01:52.683Z,5.4
2019-03-01T14:02:54.794Z,5.4
2019-03-01T14:04:04.203Z,5.4
2019-03-01T14:05:06.389Z,5.4
2019-03-01T14:06:08.511Z,5.5
2019-03-01T14:07:10.639Z,5.4
2019-03-01T14:08:12.745Z,5.5
2019-03-01T14:09:14.886Z,5.5
2019-03-01T14:10:17.445Z,5.4
2019-03-01T14:11:24.434Z,5.4
2019-03-01T14:12:26.575Z,5.4
2019-03-01T14:13:30.409Z,5.4
2019-03-01T14:14:32.817Z,5.5
2019-03-01T14:15:40.629Z,5.4
2019-03-01T14:16:43.076Z,5.4
2019-03-01T14:17:45.183Z,5.5
2019-03-01T14:18:47.577Z,5.5
2019-03-01T14:19:49.713Z,5.4
2019-03-01T14:20:59.411Z,5.4
2019-03-01T14:22:04.837Z,5.5
2019-03-01T14:23:14.073Z,5.4
2019-03-01T14:24:16.197Z,5.4
2019-03-01T14:25:18.313Z,5.4
2019-03-01T14:26:20.815Z,5.4
2019-03-01T14:27:22.930Z,5.4
2019-03-01T14:28:25.057Z,5.4